Dixville, New Hampshire
Current Conditions -  °F | °C
As of 7:52 PM on Sunday 21 Dec 2014 (Local Time) from KBML Reporting Station
Overcast Overcast  
Wind Chill: 22°   Ceiling: 3800
Heat Index: 22°   Visibility: 10mi
Dew Point: 18°   Wind: 0mph
Humidity: 85%   Direction: NA
Pressure: 30.3"   Gusts: NA
Location:  44.8906°N, 71.3771°W
Report Text: KBML 220052Z AUTO 00000KT 10SM OVC038 M06/M08 A3030 RMK AO2 SLP286 T10561078
Loading
Personal Weather Stations






























Interactive Weather Map New forecast layout! Learn more

10-Day Weather Forecast

Advertisements
Track Severe Weather on mobile